sensor_id;sensor_type;location;lat;lon;timestamp;temperature;humidity
20319;DHT22;10317;47.254;11.314;2023-02-28T00:00:22;-1.40;99.90
20319;DHT22;10317;47.254;11.314;2023-02-28T00:02:48;-1.40;99.90
20319;DHT22;10317;47.254;11.314;2023-02-28T00:05:16;-1.50;99.90
20319;DHT22;10317;47.254;11.314;2023-02-28T00:07:42;-1.40;99.90
20319;DHT22;10317;47.254;11.314;2023-02-28T00:10:11;-1.40;99.90
20319;DHT22;10317;47.254;11.314;2023-02-28T00:12:37;-1.40;99.90
20319;DHT22;10317;47.254;11.314;2023-02-28T00:15:09;-1.40;99.90
20319;DHT22;10317;47.254;11.314;2023-02-28T00:17:35;-1.40;99.90
20319;DHT22;10317;47.254;11.314;2023-02-28T00:20:02;-1.30;99.90
20319;DHT22;10317;47.254;11.314;2023-02-28T00:22:45;-1.30;99.90
20319;DHT22;10317;47.254;11.314;2023-02-28T00:25:13;-1.30;99.90
20319;DHT22;10317;47.254;11.314;2023-02-28T00:27:40;-1.40;99.90
20319;DHT22;10317;47.254;11.314;2023-02-28T00:30:12;-1.40;99.90
20319;DHT22;10317;47.254;11.314;2023-02-28T00:32:38;-1.40;99.90
20319;DHT22;10317;47.254;11.314;2023-02-28T00:35:04;-1.30;99.90
20319;DHT22;10317;47.254;11.314;2023-02-28T00:37:30;-1.30;99.90
20319;DHT22;10317;47.254;11.314;2023-02-28T00:39:56;-1.30;99.90
20319;DHT22;10317;47.254;11.314;2023-02-28T00:42:23;-1.40;99.90
20319;DHT22;10317;47.254;11.314;2023-02-28T00:44:48;-1.40;99.90
20319;DHT22;10317;47.254;11.314;2023-02-28T00:47:14;-1.40;99.90
20319;DHT22;10317;47.254;11.314;2023-02-28T00:49:40;-1.40;99.90
20319;DHT22;10317;47.254;11.314;2023-02-28T00:52:06;-1.40;99.90
20319;DHT22;10317;47.254;11.314;2023-02-28T00:54:31;-1.50;99.90
20319;DHT22;10317;47.254;11.314;2023-02-28T00:56:57;-1.50;99.90
20319;DHT22;10317;47.254;11.314;2023-02-28T00:59:23;-1.50;99.90
20319;DHT22;10317;47.254;11.314;2023-02-28T01:01:49;-1.60;99.90
20319;DHT22;10317;47.254;11.314;2023-02-28T01:04:14;-1.60;99.90
20319;DHT22;10317;47.254;11.314;2023-02-28T01:06:41;-1.60;99.90
20319;DHT22;10317;47.254;11.314;2023-02-28T01:09:07;-1.60;99.90
20319;DHT22;10317;47.254;11.314;2023-02-28T01:11:34;-1.60;99.90
20319;DHT22;10317;47.254;11.314;2023-02-28T01:14:00;-1.70;99.90
20319;DHT22;10317;47.254;11.314;2023-02-28T01:16:26;-1.70;99.90
20319;DHT22;10317;47.254;11.314;2023-02-28T01:18:52;-1.70;99.90
20319;DHT22;10317;47.254;11.314;2023-02-28T01:21:20;-1.70;99.90
20319;DHT22;10317;47.254;11.314;2023-02-28T01:23:47;-1.70;99.90
20319;DHT22;10317;47.254;11.314;2023-02-28T01:26:16;-1.70;99.90
20319;DHT22;10317;47.254;11.314;2023-02-28T01:28:42;-1.80;99.90
20319;DHT22;10317;47.254;11.314;2023-02-28T01:31:08;-1.80;99.90
20319;DHT22;10317;47.254;11.314;2023-02-28T01:33:34;-1.80;99.90
20319;DHT22;10317;47.254;11.314;2023-02-28T01:38:30;-1.90;99.90
20319;DHT22;10317;47.254;11.314;2023-02-28T01:40:55;-1.90;99.90
20319;DHT22;10317;47.254;11.314;2023-02-28T01:43:27;-1.90;99.90
20319;DHT22;10317;47.254;11.314;2023-02-28T01:45:55;-2.00;99.90
20319;DHT22;10317;47.254;11.314;2023-02-28T01:48:27;-2.00;99.90
20319;DHT22;10317;47.254;11.314;2023-02-28T01:50:56;-2.10;99.90
20319;DHT22;10317;47.254;11.314;2023-02-28T01:53:30;-2.10;99.90
20319;DHT22;10317;47.254;11.314;2023-02-28T01:55:57;-2.10;99.90
20319;DHT22;10317;47.254;11.314;2023-02-28T01:58:23;-2.20;99.90
20319;DHT22;10317;47.254;11.314;2023-02-28T02:00:49;-2.20;99.90
20319;DHT22;10317;47.254;11.314;2023-02-28T02:03:16;-2.20;99.90
20319;DHT22;10317;47.254;11.314;2023-02-28T02:05:44;-2.20;99.90
20319;DHT22;10317;47.254;11.314;2023-02-28T02:08:19;-2.30;99.90
20319;DHT22;10317;47.254;11.314;2023-02-28T02:10:59;-2.30;99.90
20319;DHT22;10317;47.254;11.314;2023-02-28T02:13:48;-2.40;99.90
20319;DHT22;10317;47.254;11.314;2023-02-28T02:19:14;-2.50;99.90
20319;DHT22;10317;47.254;11.314;2023-02-28T02:46:42;-2.90;99.90
20319;DHT22;10317;47.254;11.314;2023-02-28T02:49:15;-2.90;99.90
20319;DHT22;10317;47.254;11.314;2023-02-28T02:51:42;-2.90;99.90
20319;DHT22;10317;47.254;11.314;2023-02-28T02:54:24;-3.00;99.90
20319;DHT22;10317;47.254;11.314;2023-02-28T02:56:59;-3.00;99.90
20319;DHT22;10317;47.254;11.314;2023-02-28T02:59:28;-3.00;99.90
20319;DHT22;10317;47.254;11.314;2023-02-28T03:01:57;-3.10;99.90
20319;DHT22;10317;47.254;11.314;2023-02-28T03:04:26;-3.20;99.90
20319;DHT22;10317;47.254;11.314;2023-02-28T03:06:54;-3.20;99.90
20319;DHT22;10317;47.254;11.314;2023-02-28T03:09:24;-3.10;99.90
20319;DHT22;10317;47.254;11.314;2023-02-28T03:11:52;-3.20;99.90
20319;DHT22;10317;47.254;11.314;2023-02-28T03:17:38;-3.30;99.90
20319;DHT22;10317;47.254;11.314;2023-02-28T03:32:55;-3.50;99.90
20319;DHT22;10317;47.254;11.314;2023-02-28T03:35:30;-3.50;99.90
20319;DHT22;10317;47.254;11.314;2023-02-28T03:40:52;-3.50;99.90
20319;DHT22;10317;47.254;11.314;2023-02-28T03:43:23;-3.50;99.90
20319;DHT22;10317;47.254;11.314;2023-02-28T03:45:51;-3.50;99.90
20319;DHT22;10317;47.254;11.314;2023-02-28T03:50:58;-3.60;99.90
20319;DHT22;10317;47.254;11.314;2023-02-28T03:53:37;-3.60;99.90
20319;DHT22;10317;47.254;11.314;2023-02-28T03:56:16;-3.70;99.90
20319;DHT22;10317;47.254;11.314;2023-02-28T04:03:37;-3.80;99.90
20319;DHT22;10317;47.254;11.314;2023-02-28T04:06:05;-3.80;99.90
20319;DHT22;10317;47.254;11.314;2023-02-28T04:08:32;-3.80;99.90
20319;DHT22;10317;47.254;11.314;2023-02-28T04:11:03;-3.80;99.90
20319;DHT22;10317;47.254;11.314;2023-02-28T04:13:32;-3.80;99.90
20319;DHT22;10317;47.254;11.314;2023-02-28T04:15:57;-3.90;99.90
20319;DHT22;10317;47.254;11.314;2023-02-28T04:18:23;-3.90;99.90
20319;DHT22;10317;47.254;11.314;2023-02-28T04:20:49;-3.90;99.90
20319;DHT22;10317;47.254;11.314;2023-02-28T04:23:14;-3.90;99.90
20319;DHT22;10317;47.254;11.314;2023-02-28T04:25:40;-4.00;99.90
20319;DHT22;10317;47.254;11.314;2023-02-28T04:28:06;-4.10;99.90
20319;DHT22;10317;47.254;11.314;2023-02-28T04:30:32;-4.00;99.90
20319;DHT22;10317;47.254;11.314;2023-02-28T04:32:58;-4.00;99.90
20319;DHT22;10317;47.254;11.314;2023-02-28T04:35:24;-4.10;99.90
20319;DHT22;10317;47.254;11.314;2023-02-28T04:37:49;-4.10;99.90
20319;DHT22;10317;47.254;11.314;2023-02-28T04:40:15;-4.10;99.90
20319;DHT22;10317;47.254;11.314;2023-02-28T04:42:41;-4.10;99.90
20319;DHT22;10317;47.254;11.314;2023-02-28T04:45:07;-4.20;99.90
20319;DHT22;10317;47.254;11.314;2023-02-28T04:47:35;-4.20;99.90
20319;DHT22;10317;47.254;11.314;2023-02-28T04:50:01;-4.20;99.90
20319;DHT22;10317;47.254;11.314;2023-02-28T04:52:27;-4.20;99.90
20319;DHT22;10317;47.254;11.314;2023-02-28T04:54:53;-4.30;99.90
20319;DHT22;10317;47.254;11.314;2023-02-28T04:57:19;-4.20;99.90
20319;DHT22;10317;47.254;11.314;2023-02-28T04:59:44;-4.30;99.90
20319;DHT22;10317;47.254;11.314;2023-02-28T05:02:10;-4.30;99.90
20319;DHT22;10317;47.254;11.314;2023-02-28T05:04:36;-4.30;99.90
20319;DHT22;10317;47.254;11.314;2023-02-28T05:07:02;-4.40;99.90
20319;DHT22;10317;47.254;11.314;2023-02-28T05:09:28;-4.40;99.90
20319;DHT22;10317;47.254;11.314;2023-02-28T05:11:54;-4.40;99.90
20319;DHT22;10317;47.254;11.314;2023-02-28T05:14:20;-4.40;99.90
20319;DHT22;10317;47.254;11.314;2023-02-28T05:16:46;-4.50;99.90
20319;DHT22;10317;47.254;11.314;2023-02-28T05:19:12;-4.40;99.90
20319;DHT22;10317;47.254;11.314;2023-02-28T05:21:47;-4.50;99.90
20319;DHT22;10317;47.254;11.314;2023-02-28T05:24:14;-4.50;99.90
20319;DHT22;10317;47.254;11.314;2023-02-28T05:26:41;-4.50;99.90
20319;DHT22;10317;47.254;11.314;2023-02-28T05:29:08;-4.50;99.90
20319;DHT22;10317;47.254;11.314;2023-02-28T05:31:35;-4.60;99.90
20319;DHT22;10317;47.254;11.314;2023-02-28T05:34:01;-4.50;99.90
20319;DHT22;10317;47.254;11.314;2023-02-28T05:36:29;-4.60;99.90
20319;DHT22;10317;47.254;11.314;2023-02-28T05:38:55;-4.70;99.90
20319;DHT22;10317;47.254;11.314;2023-02-28T05:41:21;-4.60;99.90
20319;DHT22;10317;47.254;11.314;2023-02-28T05:43:47;-4.70;99.90
20319;DHT22;10317;47.254;11.314;2023-02-28T05:46:13;-4.80;99.90
20319;DHT22;10317;47.254;11.314;2023-02-28T05:48:40;-4.70;99.90
20319;DHT22;10317;47.254;11.314;2023-02-28T05:51:07;-4.70;99.90
20319;DHT22;10317;47.254;11.314;2023-02-28T05:53:34;-4.70;99.90
20319;DHT22;10317;47.254;11.314;2023-02-28T05:55:59;-4.70;99.90
20319;DHT22;10317;47.254;11.314;2023-02-28T05:58:26;-4.70;99.90
20319;DHT22;10317;47.254;11.314;2023-02-28T06:00:56;-4.70;99.90
20319;DHT22;10317;47.254;11.314;2023-02-28T06:03:22;-4.70;99.90
20319;DHT22;10317;47.254;11.314;2023-02-28T06:05:47;-4.70;99.90
20319;DHT22;10317;47.254;11.314;2023-02-28T06:08:13;-4.60;99.90
20319;DHT22;10317;47.254;11.314;2023-02-28T06:10:39;-4.60;99.90
20319;DHT22;10317;47.254;11.314;2023-02-28T06:13:05;-4.70;99.90
20319;DHT22;10317;47.254;11.314;2023-02-28T06:15:31;-4.60;99.90
20319;DHT22;10317;47.254;11.314;2023-02-28T06:17:57;-4.60;99.90
20319;DHT22;10317;47.254;11.314;2023-02-28T06:20:23;-4.50;99.90
20319;DHT22;10317;47.254;11.314;2023-02-28T06:22:49;-4.60;99.90
20319;DHT22;10317;47.254;11.314;2023-02-28T06:25:17;-4.60;99.90
20319;DHT22;10317;47.254;11.314;2023-02-28T06:27:43;-4.50;99.90
20319;DHT22;10317;47.254;11.314;2023-02-28T06:30:10;-4.40;99.90
20319;DHT22;10317;47.254;11.314;2023-02-28T06:32:36;-4.50;99.90
20319;DHT22;10317;47.254;11.314;2023-02-28T06:35:02;-4.40;99.90
20319;DHT22;10317;47.254;11.314;2023-02-28T06:37:30;-4.40;99.90
20319;DHT22;10317;47.254;11.314;2023-02-28T06:39:55;-4.30;99.90
20319;DHT22;10317;47.254;11.314;2023-02-28T06:42:22;-4.30;99.90
20319;DHT22;10317;47.254;11.314;2023-02-28T06:44:51;-4.30;99.90
20319;DHT22;10317;47.254;11.314;2023-02-28T06:47:16;-4.10;99.90
20319;DHT22;10317;47.254;11.314;2023-02-28T06:49:42;-4.00;99.90
20319;DHT22;10317;47.254;11.314;2023-02-28T06:52:10;-3.80;99.90
20319;DHT22;10317;47.254;11.314;2023-02-28T06:54:36;-3.80;99.90
20319;DHT22;10317;47.254;11.314;2023-02-28T06:57:02;-3.70;99.90
20319;DHT22;10317;47.254;11.314;2023-02-28T06:59:28;-3.60;99.90
20319;DHT22;10317;47.254;11.314;2023-02-28T07:01:54;-3.50;99.90
20319;DHT22;10317;47.254;11.314;2023-02-28T07:04:21;-3.40;99.90
20319;DHT22;10317;47.254;11.314;2023-02-28T07:06:46;-3.30;99.90
20319;DHT22;10317;47.254;11.314;2023-02-28T07:09:12;-3.20;99.90
20319;DHT22;10317;47.254;11.314;2023-02-28T07:11:40;-3.20;99.90
20319;DHT22;10317;47.254;11.314;2023-02-28T07:14:06;-3.00;99.90
20319;DHT22;10317;47.254;11.314;2023-02-28T07:16:32;-3.00;99.90
20319;DHT22;10317;47.254;11.314;2023-02-28T07:18:58;-2.90;99.90
20319;DHT22;10317;47.254;11.314;2023-02-28T07:21:24;-2.80;99.90
20319;DHT22;10317;47.254;11.314;2023-02-28T07:23:50;-2.80;99.90
20319;DHT22;10317;47.254;11.314;2023-02-28T07:26:18;-2.80;99.90
20319;DHT22;10317;47.254;11.314;2023-02-28T07:28:46;-2.60;99.90
20319;DHT22;10317;47.254;11.314;2023-02-28T07:31:13;-2.50;99.90
20319;DHT22;10317;47.254;11.314;2023-02-28T07:33:40;-2.30;99.90
20319;DHT22;10317;47.254;11.314;2023-02-28T07:36:08;-2.10;99.90
20319;DHT22;10317;47.254;11.314;2023-02-28T07:38:35;-1.90;99.90
20319;DHT22;10317;47.254;11.314;2023-02-28T07:41:03;-1.80;99.90
20319;DHT22;10317;47.254;11.314;2023-02-28T07:43:32;-1.60;99.90
20319;DHT22;10317;47.254;11.314;2023-02-28T07:46:06;-1.40;99.90
20319;DHT22;10317;47.254;11.314;2023-02-28T07:48:32;-1.10;99.90
20319;DHT22;10317;47.254;11.314;2023-02-28T07:50:58;-0.80;99.90
20319;DHT22;10317;47.254;11.314;2023-02-28T07:53:25;-0.50;99.90
20319;DHT22;10317;47.254;11.314;2023-02-28T07:55:50;-0.20;99.90
20319;DHT22;10317;47.254;11.314;2023-02-28T07:58:16;0.10;99.90
20319;DHT22;10317;47.254;11.314;2023-02-28T08:00:42;0.30;99.90
20319;DHT22;10317;47.254;11.314;2023-02-28T08:03:11;0.60;99.90
20319;DHT22;10317;47.254;11.314;2023-02-28T08:05:40;0.90;99.90
20319;DHT22;10317;47.254;11.314;2023-02-28T08:08:07;1.10;99.90
20319;DHT22;10317;47.254;11.314;2023-02-28T08:10:33;1.30;99.90
20319;DHT22;10317;47.254;11.314;2023-02-28T08:12:59;1.60;99.90
20319;DHT22;10317;47.254;11.314;2023-02-28T08:15:25;2.10;99.90
20319;DHT22;10317;47.254;11.314;2023-02-28T08:17:51;2.60;99.40
20319;DHT22;10317;47.254;11.314;2023-02-28T08:20:17;3.10;98.60
20319;DHT22;10317;47.254;11.314;2023-02-28T08:22:42;3.50;96.60
20319;DHT22;10317;47.254;11.314;2023-02-28T08:25:08;3.90;95.90
20319;DHT22;10317;47.254;11.314;2023-02-28T08:27:35;4.20;95.10
20319;DHT22;10317;47.254;11.314;2023-02-28T08:30:01;4.60;92.90
20319;DHT22;10317;47.254;11.314;2023-02-28T08:32:27;5.20;92.10
20319;DHT22;10317;47.254;11.314;2023-02-28T08:34:52;5.80;90.90
20319;DHT22;10317;47.254;11.314;2023-02-28T08:37:18;6.30;88.40
20319;DHT22;10317;47.254;11.314;2023-02-28T08:39:44;6.40;84.00
20319;DHT22;10317;47.254;11.314;2023-02-28T08:42:09;6.20;77.70
20319;DHT22;10317;47.254;11.314;2023-02-28T08:44:35;6.50;82.10
20319;DHT22;10317;47.254;11.314;2023-02-28T08:47:00;6.90;80.40
20319;DHT22;10317;47.254;11.314;2023-02-28T08:49:26;7.00;77.60
20319;DHT22;10317;47.254;11.314;2023-02-28T08:51:52;7.20;76.20
20319;DHT22;10317;47.254;11.314;2023-02-28T08:54:18;7.50;76.00
20319;DHT22;10317;47.254;11.314;2023-02-28T08:56:45;7.50;74.70
20319;DHT22;10317;47.254;11.314;2023-02-28T08:59:14;7.60;73.10
20319;DHT22;10317;47.254;11.314;2023-02-28T09:01:40;7.40;74.00
20319;DHT22;10317;47.254;11.314;2023-02-28T09:04:09;7.60;73.50
20319;DHT22;10317;47.254;11.314;2023-02-28T09:06:37;7.70;70.20
20319;DHT22;10317;47.254;11.314;2023-02-28T09:09:03;7.00;71.00
20319;DHT22;10317;47.254;11.314;2023-02-28T09:11:31;7.30;71.30
20319;DHT22;10317;47.254;11.314;2023-02-28T09:13:58;6.80;70.50
20319;DHT22;10317;47.254;11.314;2023-02-28T09:16:24;7.00;72.40
20319;DHT22;10317;47.254;11.314;2023-02-28T09:18:50;7.00;70.60
20319;DHT22;10317;47.254;11.314;2023-02-28T09:21:17;7.00;72.00
20319;DHT22;10317;47.254;11.314;2023-02-28T09:23:44;6.90;68.90
20319;DHT22;10317;47.254;11.314;2023-02-28T09:26:28;6.60;69.10
20319;DHT22;10317;47.254;11.314;2023-02-28T09:28:55;6.80;71.90
20319;DHT22;10317;47.254;11.314;2023-02-28T09:31:27;6.40;71.70
20319;DHT22;10317;47.254;11.314;2023-02-28T09:33:55;6.40;71.30
20319;DHT22;10317;47.254;11.314;2023-02-28T09:36:22;6.40;71.80
20319;DHT22;10317;47.254;11.314;2023-02-28T09:38:48;6.20;72.40
20319;DHT22;10317;47.254;11.314;2023-02-28T09:43:47;5.20;74.00
20319;DHT22;10317;47.254;11.314;2023-02-28T09:48:46;4.90;75.80
20319;DHT22;10317;47.254;11.314;2023-02-28T09:51:37;4.70;75.50
20319;DHT22;10317;47.254;11.314;2023-02-28T09:54:05;5.00;78.60
20319;DHT22;10317;47.254;11.314;2023-02-28T09:56:42;5.20;76.70
20319;DHT22;10317;47.254;11.314;2023-02-28T09:59:44;5.30;76.70
20319;DHT22;10317;47.254;11.314;2023-02-28T10:05:09;5.50;74.00
20319;DHT22;10317;47.254;11.314;2023-02-28T10:10:45;5.20;75.10
20319;DHT22;10317;47.254;11.314;2023-02-28T10:13:34;5.30;78.00
20319;DHT22;10317;47.254;11.314;2023-02-28T10:16:08;5.10;79.50
20319;DHT22;10317;47.254;11.314;2023-02-28T10:18:57;5.00;78.50
20319;DHT22;10317;47.254;11.314;2023-02-28T10:21:29;4.90;76.80
20319;DHT22;10317;47.254;11.314;2023-02-28T10:24:23;4.70;77.70
20319;DHT22;10317;47.254;11.314;2023-02-28T10:26:58;5.00;79.40
20319;DHT22;10317;47.254;11.314;2023-02-28T10:29:26;5.10;76.80
20319;DHT22;10317;47.254;11.314;2023-02-28T10:31:51;4.80;75.60
20319;DHT22;10317;47.254;11.314;2023-02-28T10:34:17;4.50;78.10
20319;DHT22;10317;47.254;11.314;2023-02-28T10:36:43;4.80;78.90
20319;DHT22;10317;47.254;11.314;2023-02-28T10:42:20;5.40;78.40
20319;DHT22;10317;47.254;11.314;2023-02-28T10:44:46;5.10;77.40
20319;DHT22;10317;47.254;11.314;2023-02-28T10:47:15;5.20;78.80
20319;DHT22;10317;47.254;11.314;2023-02-28T10:49:50;5.20;77.00
20319;DHT22;10317;47.254;11.314;2023-02-28T10:52:40;5.30;76.90
20319;DHT22;10317;47.254;11.314;2023-02-28T10:55:24;5.60;76.20
20319;DHT22;10317;47.254;11.314;2023-02-28T10:57:53;5.50;75.80
20319;DHT22;10317;47.254;11.314;2023-02-28T11:00:24;5.60;76.00
20319;DHT22;10317;47.254;11.314;2023-02-28T11:02:52;5.80;76.20
20319;DHT22;10317;47.254;11.314;2023-02-28T11:05:31;6.00;75.00
20319;DHT22;10317;47.254;11.314;2023-02-28T11:08:16;5.90;75.00
20319;DHT22;10317;47.254;11.314;2023-02-28T11:10:47;5.90;73.80
20319;DHT22;10317;47.254;11.314;2023-02-28T11:13:19;6.10;74.60
20319;DHT22;10317;47.254;11.314;2023-02-28T11:15:57;6.20;72.10
20319;DHT22;10317;47.254;11.314;2023-02-28T11:18:41;6.00;73.20
20319;DHT22;10317;47.254;11.314;2023-02-28T11:21:16;5.90;74.00
20319;DHT22;10317;47.254;11.314;2023-02-28T11:23:43;5.90;73.70
20319;DHT22;10317;47.254;11.314;2023-02-28T11:26:09;5.90;73.90
20319;DHT22;10317;47.254;11.314;2023-02-28T11:28:39;6.00;75.90
20319;DHT22;10317;47.254;11.314;2023-02-28T11:31:09;5.80;73.70
20319;DHT22;10317;47.254;11.314;2023-02-28T11:33:53;5.90;73.50
20319;DHT22;10317;47.254;11.314;2023-02-28T11:36:28;6.10;75.30
20319;DHT22;10317;47.254;11.314;2023-02-28T11:38:58;5.60;72.40
20319;DHT22;10317;47.254;11.314;2023-02-28T11:44:10;5.80;75.70
20319;DHT22;10317;47.254;11.314;2023-02-28T11:46:51;5.90;76.00
20319;DHT22;10317;47.254;11.314;2023-02-28T11:55:16;5.80;72.50
20319;DHT22;10317;47.254;11.314;2023-02-28T12:00:37;5.90;74.20
20319;DHT22;10317;47.254;11.314;2023-02-28T12:03:27;6.00;72.80
20319;DHT22;10317;47.254;11.314;2023-02-28T12:11:54;5.90;75.00
20319;DHT22;10317;47.254;11.314;2023-02-28T12:14:36;6.10;75.10
20319;DHT22;10317;47.254;11.314;2023-02-28T12:20:12;6.30;73.20
20319;DHT22;10317;47.254;11.314;2023-02-28T12:27:43;6.60;72.10
20319;DHT22;10317;47.254;11.314;2023-02-28T12:30:34;6.80;72.00
20319;DHT22;10317;47.254;11.314;2023-02-28T12:33:11;6.60;70.90
20319;DHT22;10317;47.254;11.314;2023-02-28T12:35:52;6.60;71.90
20319;DHT22;10317;47.254;11.314;2023-02-28T12:38:43;6.80;71.00
20319;DHT22;10317;47.254;11.314;2023-02-28T12:44:17;6.20;72.30
20319;DHT22;10317;47.254;11.314;2023-02-28T12:46:49;6.60;72.30
20319;DHT22;10317;47.254;11.314;2023-02-28T12:49:22;6.50;70.20
20319;DHT22;10317;47.254;11.314;2023-02-28T12:51:50;6.50;71.10
20319;DHT22;10317;47.254;11.314;2023-02-28T12:54:50;6.70;73.50
20319;DHT22;10317;47.254;11.314;2023-02-28T12:59:51;7.10;71.10
20319;DHT22;10317;47.254;11.314;2023-02-28T13:10:48;7.20;69.00
20319;DHT22;10317;47.254;11.314;2023-02-28T13:13:24;7.30;69.10
20319;DHT22;10317;47.254;11.314;2023-02-28T13:16:07;7.20;66.70
20319;DHT22;10317;47.254;11.314;2023-02-28T13:18:43;7.20;68.10
20319;DHT22;10317;47.254;11.314;2023-02-28T13:21:28;7.30;67.90
20319;DHT22;10317;47.254;11.314;2023-02-28T13:29:27;7.20;68.50
20319;DHT22;10317;47.254;11.314;2023-02-28T13:35:34;7.10;67.70
20319;DHT22;10317;47.254;11.314;2023-02-28T13:47:41;7.00;66.90
20319;DHT22;10317;47.254;11.314;2023-02-28T13:53:21;7.30;67.40
20319;DHT22;10317;47.254;11.314;2023-02-28T14:06:57;7.00;70.60
20319;DHT22;10317;47.254;11.314;2023-02-28T14:09:30;7.10;70.50
20319;DHT22;10317;47.254;11.314;2023-02-28T14:12:18;7.30;70.90
20319;DHT22;10317;47.254;11.314;2023-02-28T14:17:14;7.10;69.40
20319;DHT22;10317;47.254;11.314;2023-02-28T14:19:44;7.10;70.60
20319;DHT22;10317;47.254;11.314;2023-02-28T14:26:06;7.00;68.90
20319;DHT22;10317;47.254;11.314;2023-02-28T14:28:18;6.90;70.30
20319;DHT22;10317;47.254;11.314;2023-02-28T14:31:06;6.90;70.00
20319;DHT22;10317;47.254;11.314;2023-02-28T14:33:46;6.80;72.30
20319;DHT22;10317;47.254;11.314;2023-02-28T14:36:21;6.80;70.20
20319;DHT22;10317;47.254;11.314;2023-02-28T14:39:14;6.80;71.70
20319;DHT22;10317;47.254;11.314;2023-02-28T14:41:42;6.80;71.20
20319;DHT22;10317;47.254;11.314;2023-02-28T14:44:23;6.80;71.20
20319;DHT22;10317;47.254;11.314;2023-02-28T14:46:59;7.00;70.90
20319;DHT22;10317;47.254;11.314;2023-02-28T14:49:36;6.80;70.70
20319;DHT22;10317;47.254;11.314;2023-02-28T14:54:40;6.80;71.40
20319;DHT22;10317;47.254;11.314;2023-02-28T14:57:19;6.80;73.20
20319;DHT22;10317;47.254;11.314;2023-02-28T14:59:45;6.50;71.40
20319;DHT22;10317;47.254;11.314;2023-02-28T15:02:22;6.40;73.30
20319;DHT22;10317;47.254;11.314;2023-02-28T15:05:02;6.40;73.20
20319;DHT22;10317;47.254;11.314;2023-02-28T15:07:36;6.40;72.00
20319;DHT22;10317;47.254;11.314;2023-02-28T15:13:04;6.20;73.00
20319;DHT22;10317;47.254;11.314;2023-02-28T15:18:53;6.20;72.60
20319;DHT22;10317;47.254;11.314;2023-02-28T15:21:25;6.10;75.00
20319;DHT22;10317;47.254;11.314;2023-02-28T15:24:00;6.00;75.10
20319;DHT22;10317;47.254;11.314;2023-02-28T15:26:34;6.10;76.60
20319;DHT22;10317;47.254;11.314;2023-02-28T15:29:05;5.80;74.50
20319;DHT22;10317;47.254;11.314;2023-02-28T15:31:34;5.80;75.40
20319;DHT22;10317;47.254;11.314;2023-02-28T15:34:05;5.70;75.30
20319;DHT22;10317;47.254;11.314;2023-02-28T15:36:34;5.60;75.70
20319;DHT22;10317;47.254;11.314;2023-02-28T15:39:18;5.60;76.30
20319;DHT22;10317;47.254;11.314;2023-02-28T15:41:44;5.50;76.20
20319;DHT22;10317;47.254;11.314;2023-02-28T15:44:26;5.30;76.30
20319;DHT22;10317;47.254;11.314;2023-02-28T15:49:27;5.10;78.70
20319;DHT22;10317;47.254;11.314;2023-02-28T15:51:56;5.10;79.30
20319;DHT22;10317;47.254;11.314;2023-02-28T15:54:27;5.00;79.40
20319;DHT22;10317;47.254;11.314;2023-02-28T15:56:56;4.90;83.10
20319;DHT22;10317;47.254;11.314;2023-02-28T15:59:32;4.80;85.30
20319;DHT22;10317;47.254;11.314;2023-02-28T16:04:36;4.60;84.20
20319;DHT22;10317;47.254;11.314;2023-02-28T16:07:04;4.50;85.20
20319;DHT22;10317;47.254;11.314;2023-02-28T16:09:31;4.40;85.20
20319;DHT22;10317;47.254;11.314;2023-02-28T16:12:00;4.20;86.30
20319;DHT22;10317;47.254;11.314;2023-02-28T16:14:28;4.10;86.40
20319;DHT22;10317;47.254;11.314;2023-02-28T16:17:04;4.00;87.60
20319;DHT22;10317;47.254;11.314;2023-02-28T16:19:30;3.70;88.20
20319;DHT22;10317;47.254;11.314;2023-02-28T16:21:56;3.70;88.20
20319;DHT22;10317;47.254;11.314;2023-02-28T16:24:22;3.50;89.30
20319;DHT22;10317;47.254;11.314;2023-02-28T16:26:50;3.50;89.60
20319;DHT22;10317;47.254;11.314;2023-02-28T16:29:26;3.50;90.10
20319;DHT22;10317;47.254;11.314;2023-02-28T16:31:52;3.40;90.90
20319;DHT22;10317;47.254;11.314;2023-02-28T16:34:19;3.20;91.00
20319;DHT22;10317;47.254;11.314;2023-02-28T16:36:47;3.20;91.70
20319;DHT22;10317;47.254;11.314;2023-02-28T16:39:13;3.10;91.40
20319;DHT22;10317;47.254;11.314;2023-02-28T16:41:42;3.00;92.00
20319;DHT22;10317;47.254;11.314;2023-02-28T16:44:13;2.90;92.20
20319;DHT22;10317;47.254;11.314;2023-02-28T16:46:41;2.80;92.50
20319;DHT22;10317;47.254;11.314;2023-02-28T16:49:11;2.80;93.60
20319;DHT22;10317;47.254;11.314;2023-02-28T16:51:47;2.60;93.80
20319;DHT22;10317;47.254;11.314;2023-02-28T16:54:12;2.60;94.20
20319;DHT22;10317;47.254;11.314;2023-02-28T16:56:43;2.50;94.80
20319;DHT22;10317;47.254;11.314;2023-02-28T16:59:10;2.40;95.10
20319;DHT22;10317;47.254;11.314;2023-02-28T17:01:36;2.20;95.70
20319;DHT22;10317;47.254;11.314;2023-02-28T17:04:02;2.20;96.30
20319;DHT22;10317;47.254;11.314;2023-02-28T17:06:29;2.00;96.40
20319;DHT22;10317;47.254;11.314;2023-02-28T17:08:56;1.90;97.20
20319;DHT22;10317;47.254;11.314;2023-02-28T17:11:23;1.90;97.60
20319;DHT22;10317;47.254;11.314;2023-02-28T17:13:49;1.80;98.10
20319;DHT22;10317;47.254;11.314;2023-02-28T17:16:28;1.60;98.60
20319;DHT22;10317;47.254;11.314;2023-02-28T17:19:00;1.60;98.40
20319;DHT22;10317;47.254;11.314;2023-02-28T17:21:32;1.60;98.80
20319;DHT22;10317;47.254;11.314;2023-02-28T17:23:58;1.60;99.00
20319;DHT22;10317;47.254;11.314;2023-02-28T17:26:24;1.50;99.80
20319;DHT22;10317;47.254;11.314;2023-02-28T17:28:52;1.50;99.80
20319;DHT22;10317;47.254;11.314;2023-02-28T17:31:27;1.30;99.90
20319;DHT22;10317;47.254;11.314;2023-02-28T17:33:54;1.30;99.90
20319;DHT22;10317;47.254;11.314;2023-02-28T17:39:46;1.30;99.90
20319;DHT22;10317;47.254;11.314;2023-02-28T17:42:12;1.30;99.90
20319;DHT22;10317;47.254;11.314;2023-02-28T17:44:37;1.30;99.90
20319;DHT22;10317;47.254;11.314;2023-02-28T17:47:03;1.30;99.90
20319;DHT22;10317;47.254;11.314;2023-02-28T17:49:29;1.20;99.90
20319;DHT22;10317;47.254;11.314;2023-02-28T17:51:55;1.10;99.90
20319;DHT22;10317;47.254;11.314;2023-02-28T17:54:20;1.10;99.90
20319;DHT22;10317;47.254;11.314;2023-02-28T17:56:46;1.00;99.90
20319;DHT22;10317;47.254;11.314;2023-02-28T17:59:13;1.00;99.90
20319;DHT22;10317;47.254;11.314;2023-02-28T18:01:39;0.90;99.90
20319;DHT22;10317;47.254;11.314;2023-02-28T18:04:07;0.90;99.90
20319;DHT22;10317;47.254;11.314;2023-02-28T18:06:43;0.80;99.90
20319;DHT22;10317;47.254;11.314;2023-02-28T18:09:20;0.80;99.90
20319;DHT22;10317;47.254;11.314;2023-02-28T18:11:52;0.70;99.90
20319;DHT22;10317;47.254;11.314;2023-02-28T18:14:20;0.70;99.90
20319;DHT22;10317;47.254;11.314;2023-02-28T18:16:52;0.60;99.90
20319;DHT22;10317;47.254;11.314;2023-02-28T18:19:19;0.60;99.90
20319;DHT22;10317;47.254;11.314;2023-02-28T18:21:51;0.60;99.90
20319;DHT22;10317;47.254;11.314;2023-02-28T18:24:19;0.60;99.90
20319;DHT22;10317;47.254;11.314;2023-02-28T18:26:45;0.50;99.90